Aviation Digital Data Service (ADDS)

Output produced by METARs form (0815 UTC 20 March 2019)
found at http://www.aviationweather.gov/metar/data/
 
Forecast for: LHBP (BUDAPEST/FERIHEG, HU)
Text: TAF LHBP 200515Z 2006/2106 35006KT CAVOK
Forecast period: 0600 to 2200 UTC 20 March 2019
Forecast type: FROM: standard forecast or significant change
Winds: from the N (350 degrees) at 7 MPH (6 knots; 3.1 m/s)
Visibility: 6 or more miles 10+ km)
Ceiling: unknown
Clouds: missing
Weather: NSW  (no significant weather)
Text: TEMPO 2006/2009 SCT045
Forecast period: 0600 to 0900 UTC 20 March 2019
Forecast type: TEMPORARY: The following changes expected for less than half the time period
Visibility: missing
Ceiling: at least 12,000 feet AGL
Clouds: scattered clouds at 4500 feet AGL
Weather: no significant weather forecast for this period
Text: BECMG 2022/2024 VRB03KT
Forecast period: 2200 UTC 20 March 2019 to 0600 UTC 21 March 2019
Forecast type: BECOMING: Conditions expected to become as follows by 0000 UTC 21 March 2019
Winds: variable direction winds at 3 MPH (3 knots; 1.5 m/s)
Visibility: 6 or more miles 10+ km)
Ceiling: unknown
Clouds: missing
Weather: NSW  (no significant weather)